AFR356 LFPG-CYYZ
Flight info
| Callsign | AFR356 |
|---|---|
| Flight time | N/A |
| Altitude | 38000 |
| Route | ATREX DCT VESAN DCT RATUK DCT SOVAT L613 SANDY DCT OKSAW DCT TEWXI DCT VATRY DCT DIGAN DCT MOMIN DCT DOGAL/M084F390 NATA ALLRY/N0481F400 DCT QUBIS DCT LETAK IMEBA9 |
| Aircraft | A359/H-SDE2E3GHIJ3J4J5LM1ORWXY/LB1D1 |
Departure
| Time | 2026-05-01 10:27 |
|---|---|
| Airport | Charles de Gaulle International Airport (LFPG) |
Arrival
| Time | N/A |
|---|---|
| Airport | Toronto Pearson International Airport (CYYZ) |
| Time | Latitude | Longitude | Altitude | Speed | Heading |
|---|---|---|---|---|---|
| 2026-05-01 09:54 | 49.00141 | 2.57820 | 365 ft | 0 kts | 355° |
| 2026-05-01 10:10 | 49.00126 | 2.57822 | 365 ft | 3 kts | 354° |
| 2026-05-01 10:10 | 49.00106 | 2.57826 | 360 ft | 3 kts | 354° |
| 2026-05-01 10:10 | 49.00074 | 2.57824 | 367 ft | 3 kts | 43° |
| 2026-05-01 10:11 | 49.00065 | 2.57802 | 368 ft | 3 kts | 83° |
| 2026-05-01 10:11 | 49.00064 | 2.57775 | 367 ft | 2 kts | 85° |
| 2026-05-01 10:11 | 49.00063 | 2.57770 | 367 ft | 1 kts | 85° |
| 2026-05-01 10:16 | 49.00063 | 2.57771 | 360 ft | 1 kts | 85° |
| 2026-05-01 10:16 | 49.00065 | 2.57805 | 366 ft | 6 kts | 85° |
| 2026-05-01 10:16 | 49.00078 | 2.58044 | 368 ft | 14 kts | 85° |
| 2026-05-01 10:17 | 49.00086 | 2.58200 | 366 ft | 13 kts | 85° |
| 2026-05-01 10:17 | 49.00088 | 2.58228 | 366 ft | 0 kts | 85° |
| 2026-05-01 10:17 | 49.00089 | 2.58261 | 369 ft | 7 kts | 88° |
| 2026-05-01 10:18 | 49.00007 | 2.58220 | 363 ft | 15 kts | 262° |
| 2026-05-01 10:18 | 48.99996 | 2.58033 | 360 ft | 19 kts | 265° |
| 2026-05-01 10:18 | 48.99985 | 2.57825 | 366 ft | 20 kts | 265° |
| 2026-05-01 10:19 | 48.99973 | 2.57606 | 362 ft | 21 kts | 265° |
| 2026-05-01 10:19 | 48.99960 | 2.57376 | 366 ft | 22 kts | 265° |
| 2026-05-01 10:19 | 48.99947 | 2.57137 | 366 ft | 23 kts | 265° |
| 2026-05-01 10:20 | 48.99925 | 2.56714 | 365 ft | 18 kts | 265° |
| 2026-05-01 10:20 | 48.99914 | 2.56518 | 366 ft | 19 kts | 265° |
| 2026-05-01 10:20 | 48.99903 | 2.56309 | 366 ft | 20 kts | 265° |
| 2026-05-01 10:20 | 48.99893 | 2.56104 | 363 ft | 18 kts | 265° |
| 2026-05-01 10:21 | 48.99892 | 2.55940 | 362 ft | 13 kts | 281° |
| 2026-05-01 10:21 | 48.99854 | 2.55794 | 369 ft | 9 kts | 184° |
| 2026-05-01 10:21 | 48.99793 | 2.55800 | 364 ft | 9 kts | 172° |
| 2026-05-01 10:22 | 48.99756 | 2.55807 | 364 ft | 0 kts | 173° |
| 2026-05-01 10:23 | 48.99720 | 2.55812 | 363 ft | 4 kts | 175° |
| 2026-05-01 10:23 | 48.99715 | 2.55813 | 364 ft | 0 kts | 175° |
| 2026-05-01 10:25 | 48.99655 | 2.55820 | 365 ft | 10 kts | 175° |
| 2026-05-01 10:26 | 48.99605 | 2.55844 | 366 ft | 6 kts | 127° |
| 2026-05-01 10:26 | 48.99602 | 2.55880 | 365 ft | 0 kts | 84° |
| 2026-05-01 10:26 | 48.99608 | 2.55982 | 361 ft | 34 kts | 84° |
| 2026-05-01 10:27 | 48.99716 | 2.58004 | 364 ft | 150 kts | 85° |
| 2026-05-01 10:27 | 48.99938 | 2.61462 | 1417 ft | 163 kts | 85° |
| 2026-05-01 10:28 | 49.00071 | 2.63260 | 1693 ft | 179 kts | 87° |
| 2026-05-01 10:28 | 49.00243 | 2.67405 | 2217 ft | 214 kts | 88° |
| 2026-05-01 10:28 | 49.00350 | 2.69762 | 2469 ft | 234 kts | 88° |
| 2026-05-01 10:29 | 49.00767 | 2.75000 | 3285 ft | 264 kts | 73° |
| 2026-05-01 10:29 | 49.01660 | 2.77450 | 3892 ft | 269 kts | 49° |
| 2026-05-01 10:30 | 49.05028 | 2.79698 | 5092 ft | 276 kts | 358° |
| 2026-05-01 10:30 | 49.08713 | 2.78046 | 6258 ft | 280 kts | 337° |
| 2026-05-01 10:31 | 49.12361 | 2.75859 | 7470 ft | 283 kts | 338° |
| 2026-05-01 10:31 | 49.16073 | 2.73677 | 8643 ft | 289 kts | 338° |
| 2026-05-01 10:32 | 49.19882 | 2.71457 | 9786 ft | 296 kts | 338° |
| 2026-05-01 10:32 | 49.21818 | 2.70325 | 10333 ft | 300 kts | 338° |
| 2026-05-01 10:32 | 49.25884 | 2.67955 | 10889 ft | 326 kts | 339° |
| 2026-05-01 10:33 | 49.30289 | 2.65382 | 11372 ft | 351 kts | 339° |
| 2026-05-01 10:33 | 49.34974 | 2.62639 | 12048 ft | 367 kts | 339° |
| 2026-05-01 10:34 | 49.37375 | 2.61231 | 12512 ft | 371 kts | 339° |
| 2026-05-01 10:34 | 49.39804 | 2.59806 | 12952 ft | 376 kts | 339° |
| 2026-05-01 10:34 | 49.42257 | 2.58365 | 13380 ft | 379 kts | 339° |
| 2026-05-01 10:35 | 49.47244 | 2.55431 | 14242 ft | 387 kts | 339° |
| 2026-05-01 10:35 | 49.49732 | 2.53963 | 14639 ft | 390 kts | 339° |
| 2026-05-01 10:35 | 49.52275 | 2.52462 | 15049 ft | 393 kts | 339° |
| 2026-05-01 10:35 | 49.54840 | 2.50946 | 15451 ft | 396 kts | 339° |
| 2026-05-01 10:36 | 49.60018 | 2.47884 | 16285 ft | 401 kts | 339° |
| 2026-05-01 10:36 | 49.62631 | 2.46335 | 16703 ft | 404 kts | 339° |
| 2026-05-01 10:36 | 49.65261 | 2.44773 | 17120 ft | 407 kts | 339° |
| 2026-05-01 10:37 | 49.67909 | 2.43198 | 17511 ft | 409 kts | 339° |
| 2026-05-01 10:37 | 49.73265 | 2.40010 | 18277 ft | 415 kts | 339° |
| 2026-05-01 10:37 | 49.75972 | 2.38394 | 18662 ft | 417 kts | 339° |
| 2026-05-01 10:38 | 49.77768 | 2.37322 | 18889 ft | 419 kts | 339° |
| 2026-05-01 10:38 | 49.80499 | 2.35702 | 19162 ft | 420 kts | 339° |
| 2026-05-01 10:38 | 49.83238 | 2.34111 | 19252 ft | 421 kts | 340° |
| 2026-05-01 10:38 | 49.85996 | 2.32527 | 19536 ft | 424 kts | 340° |
| 2026-05-01 10:39 | 49.88766 | 2.30939 | 19926 ft | 425 kts | 340° |
| 2026-05-01 10:39 | 49.91547 | 2.29342 | 20280 ft | 427 kts | 340° |
| 2026-05-01 10:39 | 49.94338 | 2.27733 | 20630 ft | 429 kts | 340° |
| 2026-05-01 10:39 | 49.97144 | 2.26110 | 20979 ft | 431 kts | 339° |
| 2026-05-01 10:40 | 49.99961 | 2.24474 | 21316 ft | 434 kts | 339° |
| 2026-05-01 10:40 | 50.02793 | 2.22827 | 21668 ft | 435 kts | 339° |
| 2026-05-01 10:40 | 50.05635 | 2.21170 | 22001 ft | 437 kts | 339° |
| 2026-05-01 10:40 | 50.08485 | 2.19508 | 22341 ft | 439 kts | 339° |
| 2026-05-01 10:41 | 50.11352 | 2.17833 | 22688 ft | 441 kts | 339° |
| 2026-05-01 10:41 | 50.14229 | 2.16151 | 23011 ft | 442 kts | 339° |
| 2026-05-01 10:41 | 50.20021 | 2.12759 | 23636 ft | 446 kts | 339° |
| 2026-05-01 10:42 | 50.22931 | 2.11051 | 23915 ft | 449 kts | 339° |
| 2026-05-01 10:42 | 50.25818 | 2.09355 | 24184 ft | 450 kts | 339° |
| 2026-05-01 10:42 | 50.28758 | 2.07625 | 24454 ft | 452 kts | 339° |
| 2026-05-01 10:42 | 50.31705 | 2.05888 | 24727 ft | 453 kts | 339° |
| 2026-05-01 10:43 | 50.34650 | 2.04078 | 24974 ft | 455 kts | 335° |
| 2026-05-01 10:43 | 50.37446 | 2.01720 | 25238 ft | 456 kts | 326° |
| 2026-05-01 10:43 | 50.39998 | 1.98775 | 25528 ft | 457 kts | 320° |
| 2026-05-01 10:43 | 50.42461 | 1.95622 | 25795 ft | 458 kts | 318° |
| 2026-05-01 10:44 | 50.44889 | 1.92356 | 26055 ft | 460 kts | 317° |
| 2026-05-01 10:44 | 50.47300 | 1.89036 | 26339 ft | 462 kts | 317° |
| 2026-05-01 10:44 | 50.49715 | 1.85688 | 26615 ft | 463 kts | 317° |
| 2026-05-01 10:44 | 50.52130 | 1.82340 | 26940 ft | 465 kts | 317° |
| 2026-05-01 10:45 | 50.54567 | 1.78972 | 27230 ft | 467 kts | 317° |
| 2026-05-01 10:45 | 50.56979 | 1.75649 | 27516 ft | 469 kts | 317° |
| 2026-05-01 10:45 | 50.59442 | 1.72260 | 27817 ft | 471 kts | 317° |
| 2026-05-01 10:45 | 50.61946 | 1.68814 | 28120 ft | 473 kts | 317° |
| 2026-05-01 10:46 | 50.64391 | 1.65447 | 28433 ft | 475 kts | 317° |
| 2026-05-01 10:46 | 50.66884 | 1.62009 | 28738 ft | 477 kts | 317° |
| 2026-05-01 10:46 | 50.69386 | 1.58553 | 29041 ft | 479 kts | 317° |
| 2026-05-01 10:46 | 50.71893 | 1.55081 | 29345 ft | 481 kts | 317° |
| 2026-05-01 10:47 | 50.74415 | 1.51581 | 29657 ft | 483 kts | 317° |
| 2026-05-01 10:47 | 50.76949 | 1.48060 | 29973 ft | 485 kts | 317° |
| 2026-05-01 10:47 | 50.79486 | 1.44530 | 30282 ft | 487 kts | 317° |
| 2026-05-01 10:47 | 50.82041 | 1.40971 | 30550 ft | 489 kts | 317° |
| 2026-05-01 10:48 | 50.84595 | 1.37411 | 30839 ft | 491 kts | 316° |
| 2026-05-01 10:48 | 50.87159 | 1.33831 | 31108 ft | 492 kts | 316° |
| 2026-05-01 10:48 | 50.89735 | 1.30229 | 31396 ft | 494 kts | 316° |
| 2026-05-01 10:48 | 50.92318 | 1.26611 | 31669 ft | 496 kts | 316° |
| 2026-05-01 10:49 | 50.94903 | 1.22985 | 31889 ft | 498 kts | 316° |
| 2026-05-01 10:49 | 50.97496 | 1.19342 | 32150 ft | 499 kts | 316° |
| 2026-05-01 10:49 | 51.00095 | 1.15684 | 32396 ft | 501 kts | 316° |
| 2026-05-01 10:49 | 51.02694 | 1.11981 | 32606 ft | 502 kts | 314° |
| 2026-05-01 10:50 | 51.05019 | 1.07964 | 32836 ft | 500 kts | 305° |
| 2026-05-01 10:50 | 51.06966 | 1.03381 | 33053 ft | 498 kts | 296° |
| 2026-05-01 10:50 | 51.08462 | 0.98431 | 33264 ft | 496 kts | 290° |
| 2026-05-01 10:50 | 51.09798 | 0.93364 | 33488 ft | 497 kts | 288° |
| 2026-05-01 10:51 | 51.11067 | 0.88260 | 33679 ft | 498 kts | 287° |
| 2026-05-01 10:51 | 51.12315 | 0.83097 | 33950 ft | 498 kts | 287° |
| 2026-05-01 10:51 | 51.13549 | 0.77953 | 34255 ft | 496 kts | 287° |
| 2026-05-01 10:51 | 51.14784 | 0.72811 | 34522 ft | 495 kts | 287° |
| 2026-05-01 10:52 | 51.16015 | 0.67704 | 34764 ft | 495 kts | 287° |
| 2026-05-01 10:52 | 51.17250 | 0.62591 | 35013 ft | 494 kts | 287° |
| 2026-05-01 10:52 | 51.18485 | 0.57490 | 35265 ft | 493 kts | 288° |
| 2026-05-01 10:52 | 51.19721 | 0.52377 | 35531 ft | 493 kts | 288° |
| 2026-05-01 10:53 | 51.20952 | 0.47278 | 35793 ft | 492 kts | 288° |
| 2026-05-01 10:53 | 51.22162 | 0.42254 | 36060 ft | 491 kts | 288° |
| 2026-05-01 10:53 | 51.23382 | 0.37176 | 36325 ft | 490 kts | 288° |
| 2026-05-01 10:53 | 51.24600 | 0.32095 | 36548 ft | 490 kts | 288° |
| 2026-05-01 10:54 | 51.25812 | 0.27024 | 36789 ft | 489 kts | 288° |
| 2026-05-01 10:54 | 51.27025 | 0.21936 | 37022 ft | 489 kts | 288° |
| 2026-05-01 10:54 | 51.28230 | 0.16873 | 37239 ft | 488 kts | 288° |
| 2026-05-01 10:54 | 51.29437 | 0.11790 | 37479 ft | 488 kts | 288° |
| 2026-05-01 10:55 | 51.30452 | 0.07500 | 37653 ft | 487 kts | 288° |
| 2026-05-01 10:55 | 51.31648 | 0.02441 | 37856 ft | 487 kts | 288° |
| 2026-05-01 10:55 | 51.32841 | -0.02619 | 38095 ft | 487 kts | 288° |
| 2026-05-01 10:56 | 51.35235 | -0.12810 | 38182 ft | 491 kts | 288° |
| 2026-05-01 10:56 | 51.37625 | -0.23033 | 38182 ft | 490 kts | 288° |
| 2026-05-01 10:57 | 51.39990 | -0.33192 | 38184 ft | 490 kts | 288° |
| 2026-05-01 10:57 | 51.42362 | -0.43436 | 38184 ft | 490 kts | 288° |
| 2026-05-01 10:58 | 51.44724 | -0.53684 | 38183 ft | 490 kts | 288° |
| 2026-05-01 10:58 | 51.47080 | -0.63949 | 38182 ft | 490 kts | 288° |
| 2026-05-01 10:59 | 51.49420 | -0.74197 | 38179 ft | 490 kts | 287° |
| 2026-05-01 10:59 | 51.51753 | -0.84465 | 38172 ft | 490 kts | 287° |
| 2026-05-01 11:00 | 51.54075 | -0.94737 | 38155 ft | 490 kts | 287° |
| 2026-05-01 11:00 | 51.56390 | -1.05027 | 38156 ft | 488 kts | 287° |
| 2026-05-01 11:01 | 51.58672 | -1.15221 | 38158 ft | 488 kts | 287° |
| 2026-05-01 11:01 | 51.60964 | -1.25509 | 38156 ft | 488 kts | 287° |
| 2026-05-01 11:02 | 51.63243 | -1.35786 | 38155 ft | 488 kts | 287° |
| 2026-05-01 11:02 | 51.65515 | -1.46089 | 38168 ft | 488 kts | 287° |
| 2026-05-01 11:03 | 51.67776 | -1.56387 | 38156 ft | 487 kts | 287° |
| 2026-05-01 11:03 | 51.70049 | -1.66672 | 38152 ft | 488 kts | 289° |
| 2026-05-01 11:04 | 51.72922 | -1.76606 | 38155 ft | 489 kts | 294° |
| 2026-05-01 11:04 | 51.75955 | -1.86445 | 38156 ft | 489 kts | 294° |
| 2026-05-01 11:05 | 51.79004 | -1.96269 | 38165 ft | 489 kts | 294° |
| 2026-05-01 11:05 | 51.81805 | -2.06264 | 38157 ft | 487 kts | 289° |
| 2026-05-01 11:06 | 51.84234 | -2.16503 | 38156 ft | 487 kts | 288° |
| 2026-05-01 11:06 | 51.86594 | -2.26764 | 38157 ft | 487 kts | 288° |
| 2026-05-01 11:07 | 51.90106 | -2.42136 | 38156 ft | 487 kts | 288° |
| 2026-05-01 11:07 | 51.92450 | -2.52427 | 38155 ft | 487 kts | 288° |
| 2026-05-01 11:08 | 51.94788 | -2.62727 | 38152 ft | 487 kts | 288° |
| 2026-05-01 11:09 | 51.98283 | -2.78221 | 38151 ft | 487 kts | 287° |
| 2026-05-01 11:09 | 52.00600 | -2.88561 | 38153 ft | 487 kts | 287° |
| 2026-05-01 11:10 | 52.04043 | -3.04017 | 38156 ft | 488 kts | 287° |
| 2026-05-01 11:10 | 52.06338 | -3.14385 | 38159 ft | 488 kts | 287° |
| 2026-05-01 11:11 | 52.08624 | -3.24766 | 38160 ft | 488 kts | 287° |
| 2026-05-01 11:11 | 52.10905 | -3.35172 | 38168 ft | 488 kts | 287° |
| 2026-05-01 11:12 | 52.13173 | -3.45573 | 38182 ft | 488 kts | 286° |
| 2026-05-01 11:12 | 52.15435 | -3.55997 | 38165 ft | 489 kts | 286° |
| 2026-05-01 11:13 | 52.17692 | -3.66454 | 38164 ft | 489 kts | 286° |
| 2026-05-01 11:13 | 52.19940 | -3.76922 | 38169 ft | 489 kts | 286° |
| 2026-05-01 11:14 | 52.22178 | -3.87396 | 38182 ft | 489 kts | 286° |
| 2026-05-01 11:14 | 52.24406 | -3.97882 | 38179 ft | 489 kts | 285° |
| 2026-05-01 11:15 | 52.26615 | -4.08331 | 38173 ft | 491 kts | 285° |
| 2026-05-01 11:15 | 52.28837 | -4.18898 | 38173 ft | 492 kts | 285° |
| 2026-05-01 11:16 | 52.31052 | -4.29479 | 38173 ft | 492 kts | 285° |
| 2026-05-01 11:16 | 52.33253 | -4.40049 | 38173 ft | 492 kts | 285° |
| 2026-05-01 11:17 | 52.35447 | -4.50645 | 38179 ft | 492 kts | 284° |
| 2026-05-01 11:17 | 52.37637 | -4.61283 | 38173 ft | 494 kts | 284° |
| 2026-05-01 11:18 | 52.39823 | -4.71955 | 38172 ft | 494 kts | 284° |
| 2026-05-01 11:18 | 52.42002 | -4.82648 | 38182 ft | 494 kts | 284° |
| 2026-05-01 11:19 | 52.44157 | -4.93281 | 38181 ft | 494 kts | 284° |
| 2026-05-01 11:19 | 52.46313 | -5.03975 | 38183 ft | 494 kts | 284° |
| 2026-05-01 11:20 | 52.48463 | -5.14709 | 38177 ft | 496 kts | 283° |
| 2026-05-01 11:20 | 52.50611 | -5.25479 | 38177 ft | 497 kts | 283° |
| 2026-05-01 11:21 | 52.52747 | -5.36255 | 38176 ft | 497 kts | 283° |
| 2026-05-01 11:21 | 52.54876 | -5.47049 | 38170 ft | 496 kts | 283° |
| 2026-05-01 11:22 | 52.56866 | -5.57903 | 38172 ft | 494 kts | 279° |
| 2026-05-01 11:22 | 52.58474 | -5.68871 | 38165 ft | 493 kts | 278° |
| 2026-05-01 11:23 | 52.60040 | -5.79784 | 38168 ft | 493 kts | 279° |
| 2026-05-01 11:23 | 52.61663 | -5.90748 | 38159 ft | 494 kts | 279° |
| 2026-05-01 11:24 | 52.63306 | -6.01707 | 38180 ft | 493 kts | 279° |
| 2026-05-01 11:25 | 52.65774 | -6.18262 | 38145 ft | 495 kts | 279° |
| 2026-05-01 11:25 | 52.67935 | -6.32922 | 38143 ft | 495 kts | 279° |
| 2026-05-01 11:26 | 52.70605 | -6.51248 | 38137 ft | 495 kts | 278° |
| 2026-05-01 11:27 | 52.71941 | -6.60497 | 38140 ft | 495 kts | 278° |
| 2026-05-01 11:27 | 52.73518 | -6.71486 | 38138 ft | 495 kts | 278° |
| 2026-05-01 11:28 | 52.75095 | -6.82551 | 38134 ft | 495 kts | 278° |
| 2026-05-01 11:28 | 52.76663 | -6.93636 | 38125 ft | 495 kts | 278° |
| 2026-05-01 11:29 | 52.78995 | -7.10273 | 38134 ft | 495 kts | 278° |
| 2026-05-01 11:30 | 52.81308 | -7.26964 | 38122 ft | 497 kts | 278° |
| 2026-05-01 11:30 | 52.82838 | -7.38106 | 38124 ft | 497 kts | 278° |
| 2026-05-01 11:31 | 52.84358 | -7.49255 | 38119 ft | 497 kts | 278° |
| 2026-05-01 11:31 | 52.85866 | -7.60411 | 38143 ft | 497 kts | 278° |
| 2026-05-01 11:32 | 52.87356 | -7.71513 | 38123 ft | 499 kts | 278° |
| 2026-05-01 11:32 | 52.88849 | -7.82722 | 38114 ft | 499 kts | 278° |
| 2026-05-01 11:33 | 52.90333 | -7.93950 | 38110 ft | 499 kts | 278° |
| 2026-05-01 11:33 | 52.91807 | -8.05192 | 38111 ft | 499 kts | 278° |
| 2026-05-01 11:34 | 52.93268 | -8.16420 | 38113 ft | 499 kts | 278° |
| 2026-05-01 11:34 | 52.94798 | -8.27664 | 38113 ft | 501 kts | 280° |
| 2026-05-01 11:35 | 52.96538 | -8.38854 | 38102 ft | 501 kts | 281° |
| 2026-05-01 11:35 | 52.98282 | -8.50036 | 38103 ft | 501 kts | 280° |
| 2026-05-01 11:36 | 52.99984 | -8.61246 | 38097 ft | 500 kts | 280° |
| 2026-05-01 11:36 | 53.01654 | -8.72464 | 38095 ft | 500 kts | 280° |
| 2026-05-01 11:37 | 53.03312 | -8.83689 | 38089 ft | 501 kts | 280° |
| 2026-05-01 11:37 | 53.04961 | -8.94936 | 38088 ft | 501 kts | 280° |
| 2026-05-01 11:38 | 53.06600 | -9.06183 | 38092 ft | 500 kts | 280° |
| 2026-05-01 11:38 | 53.08228 | -9.17442 | 38091 ft | 500 kts | 280° |
| 2026-05-01 11:39 | 53.09834 | -9.28625 | 38092 ft | 501 kts | 280° |
| 2026-05-01 11:39 | 53.11442 | -9.39913 | 38091 ft | 501 kts | 280° |
| 2026-05-01 11:40 | 53.13335 | -9.51096 | 38091 ft | 503 kts | 284° |
| 2026-05-01 11:40 | 53.15481 | -9.62191 | 38091 ft | 503 kts | 285° |
| 2026-05-01 11:41 | 53.17586 | -9.73307 | 38097 ft | 503 kts | 284° |
| 2026-05-01 11:41 | 53.19627 | -9.84454 | 38094 ft | 502 kts | 284° |
| 2026-05-01 11:42 | 53.21636 | -9.95620 | 38095 ft | 502 kts | 284° |
| 2026-05-01 11:42 | 53.23631 | -10.06779 | 38100 ft | 502 kts | 284° |
| 2026-05-01 11:43 | 53.25619 | -10.17962 | 38093 ft | 502 kts | 283° |
| 2026-05-01 11:43 | 53.27597 | -10.29142 | 38093 ft | 502 kts | 283° |
| 2026-05-01 11:44 | 53.30546 | -10.45945 | 38088 ft | 502 kts | 284° |
| 2026-05-01 11:44 | 53.32496 | -10.57142 | 38089 ft | 501 kts | 284° |
| 2026-05-01 11:45 | 53.34423 | -10.68275 | 38091 ft | 501 kts | 284° |
| 2026-05-01 11:45 | 53.36352 | -10.79496 | 38083 ft | 501 kts | 283° |
| 2026-05-01 11:46 | 53.38272 | -10.90730 | 38084 ft | 501 kts | 283° |
| 2026-05-01 11:46 | 53.40179 | -11.01965 | 38078 ft | 501 kts | 283° |
| 2026-05-01 11:47 | 53.42078 | -11.13223 | 38080 ft | 501 kts | 283° |
| 2026-05-01 11:47 | 53.43963 | -11.24471 | 38075 ft | 501 kts | 283° |
| 2026-05-01 11:48 | 53.45838 | -11.35731 | 38068 ft | 501 kts | 283° |
| 2026-05-01 11:48 | 53.47705 | -11.47018 | 38073 ft | 501 kts | 283° |
| 2026-05-01 11:49 | 53.49546 | -11.58223 | 38067 ft | 501 kts | 283° |
| 2026-05-01 11:49 | 53.51390 | -11.69520 | 38061 ft | 501 kts | 283° |
| 2026-05-01 11:50 | 53.53224 | -11.80833 | 38064 ft | 502 kts | 283° |
| 2026-05-01 11:50 | 53.55047 | -11.92151 | 38061 ft | 501 kts | 283° |
| 2026-05-01 11:51 | 53.56860 | -12.03483 | 38059 ft | 502 kts | 283° |
| 2026-05-01 11:51 | 53.58667 | -12.14856 | 38053 ft | 504 kts | 283° |
| 2026-05-01 11:52 | 53.60465 | -12.26251 | 38056 ft | 504 kts | 283° |
| 2026-05-01 11:52 | 53.62251 | -12.37641 | 38054 ft | 502 kts | 283° |
| 2026-05-01 11:53 | 53.64022 | -12.49016 | 38049 ft | 502 kts | 283° |
| 2026-05-01 11:53 | 53.65785 | -12.60419 | 38051 ft | 503 kts | 283° |
| 2026-05-01 11:54 | 53.67539 | -12.71843 | 38047 ft | 503 kts | 283° |
| 2026-05-01 11:54 | 53.69282 | -12.83281 | 38050 ft | 503 kts | 283° |
| 2026-05-01 11:55 | 53.71018 | -12.94750 | 38048 ft | 504 kts | 283° |
| 2026-05-01 11:55 | 53.72729 | -13.06139 | 38063 ft | 504 kts | 283° |
| 2026-05-01 11:56 | 53.74446 | -13.17652 | 38061 ft | 503 kts | 283° |
| 2026-05-01 11:56 | 53.76138 | -13.29090 | 38070 ft | 505 kts | 283° |
| 2026-05-01 11:57 | 53.77832 | -13.40619 | 38065 ft | 505 kts | 283° |
| 2026-05-01 11:57 | 53.79516 | -13.52139 | 38076 ft | 505 kts | 283° |
| 2026-05-01 11:58 | 53.81193 | -13.63699 | 38085 ft | 507 kts | 283° |
| 2026-05-01 11:59 | 53.83684 | -13.81051 | 38085 ft | 503 kts | 283° |
| 2026-05-01 11:59 | 53.85330 | -13.92587 | 38089 ft | 504 kts | 283° |
| 2026-05-01 12:00 | 53.87763 | -14.09882 | 38099 ft | 505 kts | 283° |
| 2026-05-01 12:01 | 53.90178 | -14.27241 | 38109 ft | 505 kts | 283° |
| 2026-05-01 12:01 | 53.91780 | -14.38864 | 38109 ft | 506 kts | 284° |
| 2026-05-01 12:02 | 53.93370 | -14.50470 | 38122 ft | 503 kts | 283° |
| 2026-05-01 12:02 | 53.94943 | -14.62061 | 38117 ft | 504 kts | 283° |
| 2026-05-01 12:03 | 53.96511 | -14.73696 | 38133 ft | 505 kts | 283° |
| 2026-05-01 12:03 | 53.98055 | -14.85248 | 38130 ft | 503 kts | 283° |
| 2026-05-01 12:04 | 53.99574 | -14.96866 | 38473 ft | 501 kts | 281° |
| 2026-05-01 12:04 | 53.99993 | -15.02748 | 38693 ft | 501 kts | 274° |
| 2026-05-01 12:04 | 54.00199 | -15.08652 | 38863 ft | 500 kts | 273° |
| 2026-05-01 12:04 | 54.00347 | -15.14548 | 39040 ft | 499 kts | 272° |
| 2026-05-01 12:05 | 54.00461 | -15.20451 | 39123 ft | 500 kts | 272° |
| 2026-05-01 12:05 | 54.00748 | -15.38188 | 39153 ft | 500 kts | 272° |
| 2026-05-01 12:06 | 54.00940 | -15.50004 | 39162 ft | 498 kts | 272° |
| 2026-05-01 12:06 | 54.01126 | -15.61734 | 39165 ft | 495 kts | 272° |
| 2026-05-01 12:07 | 54.01304 | -15.73414 | 39168 ft | 494 kts | 272° |
| 2026-05-01 12:07 | 54.01471 | -15.85094 | 39180 ft | 494 kts | 272° |
| 2026-05-01 12:08 | 54.01626 | -15.96767 | 39182 ft | 494 kts | 272° |
| 2026-05-01 12:08 | 54.01766 | -16.08433 | 39184 ft | 493 kts | 272° |
| 2026-05-01 12:09 | 54.01896 | -16.20009 | 39184 ft | 492 kts | 272° |
| 2026-05-01 12:09 | 54.02018 | -16.31644 | 39185 ft | 492 kts | 272° |
| 2026-05-01 12:10 | 54.02178 | -16.49111 | 39193 ft | 492 kts | 272° |
| 2026-05-01 12:11 | 54.02310 | -16.66564 | 39197 ft | 492 kts | 272° |
| 2026-05-01 12:11 | 54.02385 | -16.78204 | 39197 ft | 492 kts | 272° |
| 2026-05-01 12:12 | 54.02448 | -16.89851 | 39205 ft | 492 kts | 272° |
| 2026-05-01 12:12 | 54.02502 | -17.01477 | 39204 ft | 492 kts | 272° |
| 2026-05-01 12:13 | 54.02537 | -17.11141 | 39200 ft | 492 kts | 272° |
| 2026-05-01 12:13 | 54.02569 | -17.22768 | 39205 ft | 491 kts | 272° |
| 2026-05-01 12:14 | 54.02592 | -17.36244 | 39211 ft | 489 kts | 271° |
| 2026-05-01 12:14 | 54.02599 | -17.45934 | 39212 ft | 489 kts | 272° |
| 2026-05-01 12:15 | 54.02598 | -17.57491 | 39225 ft | 489 kts | 271° |
| 2026-05-01 12:15 | 54.02585 | -17.68985 | 39220 ft | 489 kts | 272° |
| 2026-05-01 12:16 | 54.02561 | -17.80529 | 39220 ft | 488 kts | 271° |
| 2026-05-01 12:16 | 54.02526 | -17.92087 | 39230 ft | 488 kts | 271° |
| 2026-05-01 12:17 | 54.02481 | -18.03621 | 39230 ft | 488 kts | 271° |
| 2026-05-01 12:17 | 54.02424 | -18.15173 | 39228 ft | 488 kts | 271° |
| 2026-05-01 12:18 | 54.02356 | -18.26719 | 39235 ft | 489 kts | 271° |
| 2026-05-01 12:18 | 54.02277 | -18.38285 | 39235 ft | 490 kts | 271° |
| 2026-05-01 12:19 | 54.02187 | -18.49804 | 39238 ft | 490 kts | 271° |
| 2026-05-01 12:19 | 54.02085 | -18.61373 | 39238 ft | 490 kts | 271° |
| 2026-05-01 12:20 | 54.01973 | -18.72961 | 39243 ft | 490 kts | 271° |
| 2026-05-01 12:20 | 54.01849 | -18.84528 | 39243 ft | 489 kts | 271° |
| 2026-05-01 12:21 | 54.01714 | -18.96100 | 39246 ft | 489 kts | 271° |
| 2026-05-01 12:21 | 54.01567 | -19.07633 | 39246 ft | 486 kts | 271° |
| 2026-05-01 12:22 | 54.01411 | -19.19104 | 39251 ft | 485 kts | 271° |
| 2026-05-01 12:22 | 54.01246 | -19.30585 | 39246 ft | 485 kts | 271° |
| 2026-05-01 12:23 | 54.01070 | -19.42026 | 39255 ft | 483 kts | 271° |
| 2026-05-01 12:23 | 54.00884 | -19.53364 | 39260 ft | 482 kts | 270° |
| 2026-05-01 12:24 | 54.00686 | -19.64766 | 39259 ft | 482 kts | 270° |
| 2026-05-01 12:24 | 54.00477 | -19.76161 | 39270 ft | 482 kts | 270° |
| 2026-05-01 12:25 | 54.00143 | -19.93254 | 39266 ft | 482 kts | 270° |
| 2026-05-01 12:26 | 53.99876 | -20.04632 | 39274 ft | 482 kts | 268° |
| 2026-05-01 12:26 | 53.98851 | -20.21651 | 39279 ft | 483 kts | 266° |
| 2026-05-01 12:27 | 53.97755 | -20.38645 | 39280 ft | 482 kts | 266° |
| 2026-05-01 12:28 | 53.96720 | -20.55648 | 39284 ft | 482 kts | 266° |
| 2026-05-01 12:29 | 53.95678 | -20.72536 | 39290 ft | 482 kts | 266° |
| 2026-05-01 12:29 | 53.94604 | -20.89497 | 39295 ft | 482 kts | 266° |
| 2026-05-01 12:30 | 53.93504 | -21.06445 | 39302 ft | 480 kts | 266° |
| 2026-05-01 12:31 | 53.92758 | -21.17723 | 39299 ft | 480 kts | 266° |
| 2026-05-01 12:31 | 53.92004 | -21.28969 | 39300 ft | 480 kts | 266° |
| 2026-05-01 12:32 | 53.91240 | -21.40220 | 39300 ft | 480 kts | 266° |
| 2026-05-01 12:32 | 53.90073 | -21.57088 | 39305 ft | 480 kts | 266° |
| 2026-05-01 12:33 | 53.89281 | -21.68331 | 39303 ft | 480 kts | 265° |
| 2026-05-01 12:33 | 53.88480 | -21.79553 | 39303 ft | 480 kts | 265° |
| 2026-05-01 12:34 | 53.87668 | -21.90786 | 39307 ft | 480 kts | 265° |
| 2026-05-01 12:34 | 53.86846 | -22.02003 | 39309 ft | 480 kts | 265° |
| 2026-05-01 12:35 | 53.86018 | -22.13153 | 39313 ft | 480 kts | 265° |
| 2026-05-01 12:35 | 53.85176 | -22.24360 | 39313 ft | 480 kts | 265° |
| 2026-05-01 12:36 | 53.84322 | -22.35574 | 39320 ft | 480 kts | 265° |
| 2026-05-01 12:36 | 53.83459 | -22.46766 | 39320 ft | 480 kts | 265° |
| 2026-05-01 12:37 | 53.82584 | -22.57967 | 39324 ft | 480 kts | 265° |
| 2026-05-01 12:37 | 53.81700 | -22.69153 | 39316 ft | 480 kts | 265° |
| 2026-05-01 12:38 | 53.80804 | -22.80361 | 39329 ft | 480 kts | 265° |
| 2026-05-01 12:38 | 53.79898 | -22.91549 | 39325 ft | 480 kts | 265° |
| 2026-05-01 12:39 | 53.78982 | -23.02729 | 39324 ft | 480 kts | 265° |
| 2026-05-01 12:39 | 53.78055 | -23.13906 | 39332 ft | 480 kts | 264° |
| 2026-05-01 12:40 | 53.77119 | -23.25067 | 39339 ft | 480 kts | 264° |
| 2026-05-01 12:40 | 53.76173 | -23.36223 | 39338 ft | 480 kts | 264° |
| 2026-05-01 12:41 | 53.75215 | -23.47380 | 39343 ft | 480 kts | 264° |
| 2026-05-01 12:41 | 53.74248 | -23.58524 | 39327 ft | 480 kts | 264° |
| 2026-05-01 12:42 | 53.73271 | -23.69668 | 39341 ft | 479 kts | 264° |
| 2026-05-01 12:42 | 53.72283 | -23.80807 | 39345 ft | 479 kts | 264° |
| 2026-05-01 12:43 | 53.71290 | -23.91877 | 39345 ft | 480 kts | 264° |
| 2026-05-01 12:43 | 53.70275 | -24.03070 | 39353 ft | 480 kts | 264° |
| 2026-05-01 12:44 | 53.69263 | -24.14118 | 39348 ft | 480 kts | 264° |
| 2026-05-01 12:45 | 53.67196 | -24.36334 | 39359 ft | 479 kts | 264° |
| 2026-05-01 12:45 | 53.66146 | -24.47439 | 39363 ft | 479 kts | 264° |
| 2026-05-01 12:46 | 53.65086 | -24.58536 | 39363 ft | 479 kts | 263° |
| 2026-05-01 12:46 | 53.64017 | -24.69618 | 39364 ft | 479 kts | 263° |
| 2026-05-01 12:47 | 53.62939 | -24.80683 | 39369 ft | 478 kts | 263° |
| 2026-05-01 12:47 | 53.61850 | -24.91746 | 39373 ft | 478 kts | 263° |
| 2026-05-01 12:48 | 53.60751 | -25.02805 | 39376 ft | 478 kts | 263° |
| 2026-05-01 12:48 | 53.59643 | -25.13846 | 39381 ft | 478 kts | 263° |
| 2026-05-01 12:49 | 53.58531 | -25.24816 | 39379 ft | 478 kts | 263° |
| 2026-05-01 12:49 | 53.57404 | -25.35836 | 39386 ft | 478 kts | 263° |
| 2026-05-01 12:50 | 53.56266 | -25.46854 | 39387 ft | 477 kts | 263° |
| 2026-05-01 12:50 | 53.55123 | -25.57816 | 39386 ft | 476 kts | 263° |
| 2026-05-01 12:51 | 53.53970 | -25.68778 | 39396 ft | 475 kts | 263° |
| 2026-05-01 12:52 | 53.52224 | -25.85179 | 39393 ft | 475 kts | 263° |
| 2026-05-01 12:52 | 53.50458 | -26.01552 | 39392 ft | 475 kts | 263° |
| 2026-05-01 12:53 | 53.48678 | -26.17830 | 39404 ft | 475 kts | 263° |
| 2026-05-01 12:54 | 53.47473 | -26.28729 | 39412 ft | 475 kts | 263° |
| 2026-05-01 12:54 | 53.45644 | -26.45093 | 39412 ft | 475 kts | 263° |
| 2026-05-01 12:55 | 53.43795 | -26.61422 | 39415 ft | 475 kts | 262° |
| 2026-05-01 12:56 | 53.42549 | -26.72306 | 39401 ft | 475 kts | 263° |
| 2026-05-01 12:56 | 53.41292 | -26.83205 | 39418 ft | 476 kts | 263° |
| 2026-05-01 12:57 | 53.40024 | -26.94093 | 39422 ft | 477 kts | 262° |
| 2026-05-01 12:57 | 53.38100 | -27.10444 | 39419 ft | 477 kts | 262° |
| 2026-05-01 12:58 | 53.36808 | -27.21319 | 39425 ft | 477 kts | 262° |
| 2026-05-01 12:59 | 53.34855 | -27.37582 | 39430 ft | 477 kts | 262° |
| 2026-05-01 12:59 | 53.32871 | -27.53901 | 39432 ft | 477 kts | 262° |
| 2026-05-01 13:00 | 53.31086 | -27.68423 | 39435 ft | 476 kts | 262° |
| 2026-05-01 13:01 | 53.29074 | -27.84596 | 39438 ft | 475 kts | 262° |
| 2026-05-01 13:02 | 53.27036 | -28.00794 | 39441 ft | 475 kts | 262° |
| 2026-05-01 13:07 | 53.11435 | -29.19012 | 39462 ft | 474 kts | 261° |
| 2026-05-01 13:08 | 53.09959 | -29.29711 | 39460 ft | 474 kts | 261° |
| 2026-05-01 13:08 | 53.08478 | -29.40377 | 39465 ft | 473 kts | 261° |
| 2026-05-01 13:09 | 53.06995 | -29.50974 | 39468 ft | 473 kts | 261° |
| 2026-05-01 13:09 | 53.05492 | -29.61647 | 39470 ft | 474 kts | 261° |
| 2026-05-01 13:10 | 53.03981 | -29.72298 | 39473 ft | 474 kts | 261° |
| 2026-05-01 13:10 | 53.02461 | -29.82935 | 39472 ft | 472 kts | 260° |
| 2026-05-01 13:11 | 53.00938 | -29.93519 | 39478 ft | 471 kts | 260° |
| 2026-05-01 13:11 | 52.99793 | -30.04175 | 39480 ft | 467 kts | 267° |
| 2026-05-01 13:12 | 52.99123 | -30.14900 | 39475 ft | 467 kts | 268° |
| 2026-05-01 13:12 | 52.98515 | -30.25640 | 39477 ft | 467 kts | 268° |
| 2026-05-01 13:13 | 52.97899 | -30.36365 | 39482 ft | 467 kts | 268° |
| 2026-05-01 13:13 | 52.97262 | -30.47118 | 39494 ft | 468 kts | 267° |
| 2026-05-01 13:14 | 52.96611 | -30.57852 | 39491 ft | 468 kts | 267° |
| 2026-05-01 13:14 | 52.95948 | -30.68589 | 39485 ft | 468 kts | 267° |
| 2026-05-01 13:15 | 52.95277 | -30.79326 | 39492 ft | 468 kts | 267° |
| 2026-05-01 13:15 | 52.94600 | -30.89989 | 39497 ft | 468 kts | 266° |
| 2026-05-01 13:16 | 52.93904 | -31.00804 | 39487 ft | 469 kts | 266° |
| 2026-05-01 13:16 | 52.93208 | -31.11475 | 39489 ft | 469 kts | 266° |
| 2026-05-01 13:17 | 52.91777 | -31.32919 | 39505 ft | 466 kts | 266° |
| 2026-05-01 13:18 | 52.90683 | -31.48960 | 39501 ft | 468 kts | 265° |
| 2026-05-01 13:18 | 52.89939 | -31.59678 | 39502 ft | 468 kts | 265° |
| 2026-05-01 13:19 | 52.89190 | -31.70320 | 39500 ft | 468 kts | 265° |
| 2026-05-01 13:20 | 52.88043 | -31.86366 | 39500 ft | 468 kts | 265° |
| 2026-05-01 13:20 | 52.87266 | -31.97058 | 39503 ft | 468 kts | 265° |
| 2026-05-01 13:21 | 52.86080 | -32.13133 | 39502 ft | 469 kts | 265° |
| 2026-05-01 13:21 | 52.85276 | -32.23849 | 39504 ft | 469 kts | 264° |
| 2026-05-01 13:22 | 52.84464 | -32.34552 | 39504 ft | 469 kts | 264° |
| 2026-05-01 13:22 | 52.83642 | -32.45252 | 39506 ft | 468 kts | 264° |
| 2026-05-01 13:23 | 52.82814 | -32.55918 | 39511 ft | 467 kts | 264° |
| 2026-05-01 13:23 | 52.81974 | -32.66573 | 39510 ft | 467 kts | 264° |
| 2026-05-01 13:24 | 52.81131 | -32.77163 | 39515 ft | 468 kts | 264° |
| 2026-05-01 13:25 | 52.79840 | -32.93147 | 39511 ft | 468 kts | 264° |
| 2026-05-01 13:25 | 52.78967 | -33.03802 | 39511 ft | 468 kts | 263° |
| 2026-05-01 13:26 | 52.78085 | -33.14459 | 39513 ft | 469 kts | 263° |
| 2026-05-01 13:26 | 52.77191 | -33.25129 | 39517 ft | 469 kts | 263° |
| 2026-05-01 13:27 | 52.76288 | -33.35785 | 39516 ft | 469 kts | 263° |
| 2026-05-01 13:27 | 52.74915 | -33.51775 | 39519 ft | 469 kts | 263° |
| 2026-05-01 13:28 | 52.73525 | -33.67698 | 39520 ft | 470 kts | 262° |
| 2026-05-01 13:29 | 52.71632 | -33.88992 | 39522 ft | 469 kts | 262° |
| 2026-05-01 13:31 | 52.68721 | -34.20880 | 39526 ft | 469 kts | 262° |
| 2026-05-01 13:32 | 52.66236 | -34.47389 | 39527 ft | 469 kts | 261° |
| 2026-05-01 13:33 | 52.63684 | -34.73936 | 39527 ft | 470 kts | 261° |
| 2026-05-01 13:34 | 52.61595 | -34.95179 | 39530 ft | 470 kts | 261° |
| 2026-05-01 13:35 | 52.60006 | -35.11082 | 39530 ft | 470 kts | 261° |
| 2026-05-01 13:36 | 52.58401 | -35.26949 | 39533 ft | 472 kts | 259° |
| 2026-05-01 13:36 | 52.56759 | -35.42902 | 39535 ft | 472 kts | 259° |
| 2026-05-01 13:37 | 52.55653 | -35.53551 | 39535 ft | 472 kts | 259° |
| 2026-05-01 13:37 | 52.54538 | -35.64185 | 39535 ft | 472 kts | 259° |
| 2026-05-01 13:38 | 52.52840 | -35.80148 | 39536 ft | 474 kts | 259° |
| 2026-05-01 13:39 | 52.51694 | -35.90833 | 39535 ft | 475 kts | 259° |
| 2026-05-01 13:39 | 52.50549 | -36.01437 | 39535 ft | 475 kts | 259° |
| 2026-05-01 13:40 | 52.49387 | -36.12103 | 39535 ft | 475 kts | 259° |
| 2026-05-01 13:40 | 52.48214 | -36.22761 | 39538 ft | 475 kts | 258° |
| 2026-05-01 13:41 | 52.47030 | -36.33426 | 39538 ft | 476 kts | 258° |
| 2026-05-01 13:41 | 52.45832 | -36.44105 | 39538 ft | 476 kts | 258° |
| 2026-05-01 13:42 | 52.44626 | -36.54773 | 39538 ft | 476 kts | 258° |
| 2026-05-01 13:42 | 52.43410 | -36.65443 | 39538 ft | 476 kts | 258° |
| 2026-05-01 13:43 | 52.42185 | -36.76100 | 39539 ft | 476 kts | 257° |
| 2026-05-01 13:43 | 52.40944 | -36.86779 | 39538 ft | 478 kts | 257° |
| 2026-05-01 13:44 | 52.39698 | -36.97463 | 39538 ft | 478 kts | 257° |
| 2026-05-01 13:44 | 52.38440 | -37.08149 | 39540 ft | 478 kts | 257° |
| 2026-05-01 13:45 | 52.37172 | -37.18829 | 39540 ft | 478 kts | 257° |
| 2026-05-01 13:45 | 52.35902 | -37.29427 | 39542 ft | 478 kts | 257° |
| 2026-05-01 13:46 | 52.34607 | -37.40130 | 39538 ft | 480 kts | 257° |
| 2026-05-01 13:46 | 52.33304 | -37.50835 | 39538 ft | 480 kts | 257° |
| 2026-05-01 13:47 | 52.31996 | -37.61519 | 39538 ft | 480 kts | 257° |
| 2026-05-01 13:47 | 52.30676 | -37.72203 | 39540 ft | 479 kts | 256° |
| 2026-05-01 13:48 | 52.29345 | -37.82881 | 39535 ft | 479 kts | 256° |
| 2026-05-01 13:48 | 52.28006 | -37.93543 | 39540 ft | 479 kts | 256° |
| 2026-05-01 13:49 | 52.26657 | -38.04202 | 39538 ft | 479 kts | 256° |
| 2026-05-01 13:49 | 52.25526 | -38.13071 | 39538 ft | 479 kts | 256° |
| 2026-05-01 13:50 | 52.24160 | -38.23712 | 39541 ft | 479 kts | 256° |
| 2026-05-01 13:50 | 52.22782 | -38.34356 | 39539 ft | 480 kts | 256° |
| 2026-05-01 13:51 | 52.21388 | -38.45049 | 39540 ft | 483 kts | 256° |
| 2026-05-01 13:51 | 52.19983 | -38.55751 | 39540 ft | 483 kts | 255° |
| 2026-05-01 13:52 | 52.18568 | -38.66451 | 39540 ft | 483 kts | 255° |
| 2026-05-01 13:52 | 52.17143 | -38.77145 | 39541 ft | 483 kts | 255° |
| 2026-05-01 13:53 | 52.15717 | -38.87767 | 39535 ft | 484 kts | 255° |
| 2026-05-01 13:53 | 52.13537 | -39.03846 | 39534 ft | 485 kts | 255° |
| 2026-05-01 13:54 | 52.12070 | -39.14575 | 39538 ft | 485 kts | 255° |
| 2026-05-01 13:54 | 52.10595 | -39.25283 | 39538 ft | 485 kts | 255° |
| 2026-05-01 13:55 | 52.09108 | -39.35997 | 39535 ft | 486 kts | 255° |
| 2026-05-01 13:55 | 52.07608 | -39.46727 | 39539 ft | 488 kts | 254° |
| 2026-05-01 13:56 | 52.06095 | -39.57476 | 39543 ft | 488 kts | 254° |
| 2026-05-01 13:56 | 52.04572 | -39.68222 | 39538 ft | 488 kts | 254° |
| 2026-05-01 13:57 | 52.03043 | -39.78936 | 39528 ft | 487 kts | 254° |
| 2026-05-01 13:57 | 52.01504 | -39.89638 | 39533 ft | 487 kts | 254° |
| 2026-05-01 13:58 | 52.00082 | -40.00403 | 39534 ft | 490 kts | 260° |
| 2026-05-01 13:58 | 51.99333 | -40.11386 | 39534 ft | 491 kts | 262° |
| 2026-05-01 13:59 | 51.98702 | -40.22418 | 39538 ft | 491 kts | 262° |
| 2026-05-01 13:59 | 51.98084 | -40.33359 | 39533 ft | 491 kts | 262° |
| 2026-05-01 14:00 | 51.97440 | -40.44394 | 39538 ft | 491 kts | 262° |
| 2026-05-01 14:00 | 51.96778 | -40.55407 | 39536 ft | 491 kts | 262° |
| 2026-05-01 14:01 | 51.96102 | -40.66449 | 39534 ft | 491 kts | 262° |
| 2026-05-01 14:01 | 51.95419 | -40.77449 | 39538 ft | 490 kts | 262° |
| 2026-05-01 14:02 | 51.94726 | -40.88444 | 39532 ft | 490 kts | 262° |
| 2026-05-01 14:02 | 51.94024 | -40.99415 | 39541 ft | 489 kts | 262° |
| 2026-05-01 14:03 | 51.93312 | -41.10384 | 39533 ft | 490 kts | 262° |
| 2026-05-01 14:03 | 51.92588 | -41.21361 | 39533 ft | 490 kts | 262° |
| 2026-05-01 14:04 | 51.91855 | -41.32327 | 39530 ft | 490 kts | 262° |
| 2026-05-01 14:04 | 51.91113 | -41.43281 | 39530 ft | 490 kts | 261° |
| 2026-05-01 14:05 | 51.90364 | -41.54176 | 39530 ft | 489 kts | 261° |
| 2026-05-01 14:05 | 51.89601 | -41.65124 | 39531 ft | 488 kts | 261° |
| 2026-05-01 14:06 | 51.88830 | -41.76041 | 39531 ft | 487 kts | 261° |
| 2026-05-01 14:06 | 51.88051 | -41.86925 | 39528 ft | 487 kts | 261° |
| 2026-05-01 14:07 | 51.87260 | -41.97826 | 39525 ft | 487 kts | 261° |
| 2026-05-01 14:08 | 51.86056 | -42.14154 | 39529 ft | 487 kts | 261° |
| 2026-05-01 14:08 | 51.85242 | -42.25032 | 39520 ft | 486 kts | 261° |
| 2026-05-01 14:09 | 51.84418 | -42.35888 | 39522 ft | 486 kts | 261° |
| 2026-05-01 14:09 | 51.83590 | -42.46666 | 39523 ft | 486 kts | 261° |
| 2026-05-01 14:10 | 51.82749 | -42.57494 | 39521 ft | 484 kts | 261° |
| 2026-05-01 14:10 | 51.81900 | -42.68282 | 39521 ft | 484 kts | 261° |
| 2026-05-01 14:11 | 51.81040 | -42.79070 | 39519 ft | 484 kts | 261° |
| 2026-05-01 14:11 | 51.79735 | -42.95223 | 39519 ft | 483 kts | 261° |
| 2026-05-01 14:12 | 51.78852 | -43.05992 | 39519 ft | 483 kts | 261° |
| 2026-05-01 14:12 | 51.77958 | -43.16769 | 39519 ft | 483 kts | 261° |
| 2026-05-01 14:13 | 51.77209 | -43.25701 | 39519 ft | 483 kts | 261° |
| 2026-05-01 14:13 | 51.76145 | -43.38254 | 39519 ft | 483 kts | 261° |
| 2026-05-01 14:14 | 51.75224 | -43.48995 | 39516 ft | 482 kts | 261° |
| 2026-05-01 14:14 | 51.74294 | -43.59719 | 39516 ft | 482 kts | 260° |
| 2026-05-01 14:15 | 51.73361 | -43.70361 | 39516 ft | 482 kts | 260° |
| 2026-05-01 14:15 | 51.72413 | -43.81061 | 39516 ft | 482 kts | 260° |
| 2026-05-01 14:16 | 51.71454 | -43.91763 | 39517 ft | 482 kts | 260° |
| 2026-05-01 14:16 | 51.70484 | -44.02486 | 39516 ft | 482 kts | 260° |
| 2026-05-01 14:17 | 51.69506 | -44.13180 | 39513 ft | 482 kts | 260° |
| 2026-05-01 14:17 | 51.68517 | -44.23877 | 39514 ft | 482 kts | 260° |
| 2026-05-01 14:18 | 51.67527 | -44.34492 | 39513 ft | 481 kts | 260° |
| 2026-05-01 14:18 | 51.66685 | -44.43426 | 39518 ft | 481 kts | 259° |
| 2026-05-01 14:19 | 51.65506 | -44.55810 | 39508 ft | 482 kts | 259° |
| 2026-05-01 14:19 | 51.64481 | -44.66464 | 39508 ft | 482 kts | 259° |
| 2026-05-01 14:20 | 51.62924 | -44.82461 | 39508 ft | 482 kts | 259° |
| 2026-05-01 14:21 | 51.61874 | -44.93105 | 39508 ft | 482 kts | 259° |
| 2026-05-01 14:21 | 51.60814 | -45.03758 | 39511 ft | 482 kts | 259° |
| 2026-05-01 14:22 | 51.59209 | -45.19703 | 39505 ft | 482 kts | 259° |
| 2026-05-01 14:22 | 51.58133 | -45.30259 | 39501 ft | 481 kts | 259° |
| 2026-05-01 14:23 | 51.57040 | -45.40889 | 39505 ft | 481 kts | 259° |
| 2026-05-01 14:23 | 51.55939 | -45.51494 | 39502 ft | 481 kts | 259° |
| 2026-05-01 14:24 | 51.54828 | -45.62100 | 39505 ft | 482 kts | 259° |
| 2026-05-01 14:24 | 51.53705 | -45.72728 | 39501 ft | 482 kts | 258° |
| 2026-05-01 14:25 | 51.52573 | -45.83340 | 39503 ft | 482 kts | 258° |
| 2026-05-01 14:25 | 51.51432 | -45.93943 | 39504 ft | 481 kts | 258° |
| 2026-05-01 14:26 | 51.49707 | -46.09803 | 39501 ft | 481 kts | 258° |
| 2026-05-01 14:27 | 51.48546 | -46.20358 | 39497 ft | 481 kts | 258° |
| 2026-05-01 14:27 | 51.47381 | -46.30858 | 39497 ft | 481 kts | 258° |
| 2026-05-01 14:28 | 51.45604 | -46.46700 | 39497 ft | 481 kts | 258° |
| 2026-05-01 14:28 | 51.44409 | -46.57247 | 39495 ft | 481 kts | 258° |
| 2026-05-01 14:29 | 51.43204 | -46.67792 | 39497 ft | 481 kts | 258° |
| 2026-05-01 14:30 | 51.40772 | -46.88808 | 39494 ft | 481 kts | 258° |
| 2026-05-01 14:31 | 51.38918 | -47.04600 | 39489 ft | 481 kts | 258° |
| 2026-05-01 14:31 | 51.37672 | -47.15103 | 39490 ft | 481 kts | 258° |
| 2026-05-01 14:32 | 51.36415 | -47.25619 | 39490 ft | 481 kts | 258° |
| 2026-05-01 14:32 | 51.35148 | -47.36131 | 39485 ft | 481 kts | 258° |
| 2026-05-01 14:33 | 51.33874 | -47.46624 | 39487 ft | 481 kts | 258° |
| 2026-05-01 14:33 | 51.32589 | -47.57119 | 39488 ft | 481 kts | 258° |
| 2026-05-01 14:34 | 51.31295 | -47.67606 | 39484 ft | 481 kts | 257° |
| 2026-05-01 14:34 | 51.29991 | -47.78089 | 39484 ft | 481 kts | 257° |
| 2026-05-01 14:35 | 51.28686 | -47.88500 | 39485 ft | 481 kts | 257° |
| 2026-05-01 14:35 | 51.27364 | -47.98968 | 39480 ft | 481 kts | 257° |
| 2026-05-01 14:36 | 51.26032 | -48.09433 | 39483 ft | 481 kts | 257° |
| 2026-05-01 14:36 | 51.24692 | -48.19887 | 39479 ft | 481 kts | 257° |
| 2026-05-01 14:37 | 51.23341 | -48.30343 | 39475 ft | 481 kts | 257° |
| 2026-05-01 14:37 | 51.21981 | -48.40794 | 39479 ft | 481 kts | 257° |
| 2026-05-01 14:38 | 51.20844 | -48.49473 | 39476 ft | 481 kts | 257° |
| 2026-05-01 14:38 | 51.19466 | -48.59918 | 39473 ft | 481 kts | 257° |
| 2026-05-01 14:39 | 51.18077 | -48.70366 | 39473 ft | 481 kts | 257° |
| 2026-05-01 14:39 | 51.16682 | -48.80792 | 39472 ft | 481 kts | 257° |
| 2026-05-01 14:40 | 51.15277 | -48.91211 | 39468 ft | 481 kts | 257° |
| 2026-05-01 14:40 | 51.13862 | -49.01632 | 39470 ft | 481 kts | 257° |
| 2026-05-01 14:41 | 51.12439 | -49.12038 | 39467 ft | 481 kts | 257° |
| 2026-05-01 14:41 | 51.11014 | -49.22383 | 39465 ft | 481 kts | 256° |
| 2026-05-01 14:42 | 51.09572 | -49.32774 | 39461 ft | 481 kts | 256° |
| 2026-05-01 14:42 | 51.08120 | -49.43170 | 39462 ft | 481 kts | 256° |
| 2026-05-01 14:43 | 51.06659 | -49.53557 | 39459 ft | 481 kts | 256° |
| 2026-05-01 14:43 | 51.05189 | -49.63936 | 39460 ft | 481 kts | 256° |
| 2026-05-01 14:44 | 51.03709 | -49.74316 | 39456 ft | 481 kts | 256° |
| 2026-05-01 14:44 | 51.01471 | -49.89872 | 39449 ft | 481 kts | 256° |
| 2026-05-01 14:45 | 50.98755 | -50.05168 | 39457 ft | 480 kts | 249° |
| 2026-05-01 14:46 | 50.96417 | -50.15081 | 39444 ft | 480 kts | 248° |
| 2026-05-01 14:46 | 50.92830 | -50.29860 | 39441 ft | 481 kts | 248° |
| 2026-05-01 14:47 | 50.90422 | -50.39743 | 39449 ft | 481 kts | 248° |
| 2026-05-01 14:48 | 50.86805 | -50.54551 | 39431 ft | 480 kts | 248° |
| 2026-05-01 14:48 | 50.83176 | -50.69324 | 39422 ft | 480 kts | 248° |
| 2026-05-01 14:49 | 50.78304 | -50.88999 | 39424 ft | 480 kts | 248° |
| 2026-05-01 14:50 | 50.73400 | -51.08628 | 39422 ft | 480 kts | 248° |
| 2026-05-01 14:51 | 50.69700 | -51.23324 | 39419 ft | 480 kts | 248° |
| 2026-05-01 14:52 | 50.66000 | -51.37925 | 39415 ft | 480 kts | 248° |
| 2026-05-01 14:53 | 50.62274 | -51.52533 | 39413 ft | 479 kts | 247° |
| 2026-05-01 14:53 | 50.59782 | -51.62254 | 39415 ft | 479 kts | 247° |
| 2026-05-01 14:54 | 50.57279 | -51.71969 | 39408 ft | 479 kts | 247° |
| 2026-05-01 14:54 | 50.54768 | -51.81680 | 39407 ft | 479 kts | 247° |
| 2026-05-01 14:55 | 50.52256 | -51.91351 | 39402 ft | 478 kts | 247° |
| 2026-05-01 14:55 | 50.49997 | -52.01173 | 39513 ft | 480 kts | 256° |
| 2026-05-01 14:55 | 50.49298 | -52.06301 | 39676 ft | 480 kts | 258° |
| 2026-05-01 14:56 | 50.48683 | -52.11375 | 39836 ft | 480 kts | 258° |
| 2026-05-01 14:56 | 50.48096 | -52.16527 | 40015 ft | 479 kts | 259° |
| 2026-05-01 14:56 | 50.47525 | -52.21678 | 40168 ft | 479 kts | 259° |
| 2026-05-01 14:56 | 50.46956 | -52.26819 | 40330 ft | 479 kts | 258° |
| 2026-05-01 14:57 | 50.46378 | -52.31985 | 40399 ft | 480 kts | 258° |
| 2026-05-01 14:57 | 50.44612 | -52.47446 | 40389 ft | 480 kts | 258° |
| 2026-05-01 14:58 | 50.43415 | -52.57737 | 40387 ft | 479 kts | 258° |
| 2026-05-01 14:58 | 50.42209 | -52.68020 | 40384 ft | 479 kts | 258° |
| 2026-05-01 14:59 | 50.40993 | -52.78305 | 40383 ft | 479 kts | 258° |
| 2026-05-01 14:59 | 50.39769 | -52.88582 | 40384 ft | 478 kts | 258° |
| 2026-05-01 15:00 | 50.37923 | -53.03923 | 40380 ft | 477 kts | 258° |
| 2026-05-01 15:01 | 50.36683 | -53.14137 | 40367 ft | 477 kts | 258° |
| 2026-05-01 15:01 | 50.35443 | -53.24266 | 40369 ft | 477 kts | 257° |
| 2026-05-01 15:02 | 50.34187 | -53.34450 | 40362 ft | 477 kts | 258° |
| 2026-05-01 15:02 | 50.32921 | -53.44642 | 40367 ft | 477 kts | 258° |
| 2026-05-01 15:03 | 50.31645 | -53.54830 | 40365 ft | 477 kts | 257° |
| 2026-05-01 15:03 | 50.30362 | -53.65001 | 40362 ft | 476 kts | 257° |
| 2026-05-01 15:04 | 50.29072 | -53.75150 | 40358 ft | 476 kts | 257° |
| 2026-05-01 15:04 | 50.27771 | -53.85310 | 40356 ft | 476 kts | 257° |
| 2026-05-01 15:05 | 50.26463 | -53.95452 | 40355 ft | 476 kts | 257° |
| 2026-05-01 15:05 | 50.25146 | -54.05588 | 40355 ft | 476 kts | 257° |
| 2026-05-01 15:06 | 50.23821 | -54.15718 | 40340 ft | 476 kts | 257° |
| 2026-05-01 15:06 | 50.22496 | -54.25771 | 40347 ft | 476 kts | 256° |
| 2026-05-01 15:07 | 50.21155 | -54.35871 | 40344 ft | 475 kts | 256° |
| 2026-05-01 15:07 | 50.19805 | -54.45973 | 40332 ft | 475 kts | 256° |
| 2026-05-01 15:08 | 50.18447 | -54.56061 | 40332 ft | 475 kts | 256° |
| 2026-05-01 15:08 | 50.17081 | -54.66139 | 40329 ft | 475 kts | 256° |
| 2026-05-01 15:09 | 50.15706 | -54.76207 | 40326 ft | 474 kts | 256° |
| 2026-05-01 15:09 | 50.14323 | -54.86270 | 40321 ft | 474 kts | 256° |
| 2026-05-01 15:10 | 50.12941 | -54.96255 | 40320 ft | 474 kts | 256° |
| 2026-05-01 15:10 | 50.10830 | -55.11384 | 40315 ft | 474 kts | 256° |
| 2026-05-01 15:11 | 50.08719 | -55.26354 | 40314 ft | 474 kts | 256° |
| 2026-05-01 15:12 | 50.07295 | -55.36373 | 40313 ft | 474 kts | 256° |
| 2026-05-01 15:12 | 50.05142 | -55.51389 | 40314 ft | 474 kts | 256° |
| 2026-05-01 15:14 | 50.01509 | -55.76406 | 40298 ft | 474 kts | 255° |
| 2026-05-01 15:14 | 49.99313 | -55.91328 | 40298 ft | 474 kts | 255° |
| 2026-05-01 15:15 | 49.96345 | -56.11275 | 40293 ft | 474 kts | 255° |
| 2026-05-01 15:16 | 49.93345 | -56.31188 | 40286 ft | 474 kts | 255° |
| 2026-05-01 15:18 | 49.89547 | -56.56039 | 40280 ft | 473 kts | 255° |
| 2026-05-01 15:19 | 49.86473 | -56.75872 | 40276 ft | 473 kts | 255° |
| 2026-05-01 15:19 | 49.84156 | -56.90668 | 40265 ft | 473 kts | 255° |
| 2026-05-01 15:20 | 49.81814 | -57.05485 | 40264 ft | 471 kts | 254° |
| 2026-05-01 15:21 | 49.80248 | -57.15320 | 40256 ft | 471 kts | 254° |
| 2026-05-01 15:21 | 49.78673 | -57.25150 | 40251 ft | 470 kts | 254° |
| 2026-05-01 15:22 | 49.76296 | -57.39875 | 40236 ft | 470 kts | 254° |
| 2026-05-01 15:22 | 49.74700 | -57.49694 | 40232 ft | 469 kts | 254° |
| 2026-05-01 15:23 | 49.73108 | -57.59433 | 40217 ft | 469 kts | 253° |
| 2026-05-01 15:23 | 49.71500 | -57.69208 | 40211 ft | 469 kts | 253° |
| 2026-05-01 15:24 | 49.69887 | -57.78964 | 40191 ft | 469 kts | 253° |
| 2026-05-01 15:24 | 49.68267 | -57.88703 | 40188 ft | 468 kts | 253° |
| 2026-05-01 15:25 | 49.66638 | -57.98432 | 40165 ft | 468 kts | 253° |
| 2026-05-01 15:25 | 49.65003 | -58.08146 | 40173 ft | 468 kts | 253° |
| 2026-05-01 15:26 | 49.63637 | -58.16228 | 40168 ft | 468 kts | 253° |
| 2026-05-01 15:26 | 49.61985 | -58.25942 | 40166 ft | 468 kts | 253° |
| 2026-05-01 15:27 | 49.60327 | -58.35642 | 40165 ft | 468 kts | 253° |
| 2026-05-01 15:28 | 49.57824 | -58.50184 | 40163 ft | 468 kts | 253° |
| 2026-05-01 15:28 | 49.56142 | -58.59885 | 40163 ft | 468 kts | 253° |
| 2026-05-01 15:29 | 49.53611 | -58.74389 | 40162 ft | 467 kts | 253° |
| 2026-05-01 15:30 | 49.50207 | -58.93706 | 40158 ft | 467 kts | 253° |
| 2026-05-01 15:31 | 49.45060 | -59.22526 | 40151 ft | 466 kts | 252° |
| 2026-05-01 15:32 | 49.41587 | -59.41713 | 40151 ft | 466 kts | 252° |
| 2026-05-01 15:34 | 49.36322 | -59.70425 | 40150 ft | 466 kts | 252° |